This is the latest recevied weather packets stored in our database for station/object KB1RMA-4. If no packets are shown the sender has not sent any weather packets the latest 10 day(s).
| Time | Temp. | Humidity | Pressure | Rain* | Wind** | Luminosity | Snow |
|---|---|---|---|---|---|---|---|
| 1787580111 | 23.89° C | 68% | 1013.2 hPa | 0 mm | - | 671 W/m² | - |
| 1787579810 | 23.33° C | 73% | 1013.2 hPa | 0 mm | - | 526 W/m² | - |
| 1787579505 | 23.33° C | 72% | 1013.7 hPa | 0 mm | - | 97 W/m² | - |
| 1787579200 | 22.78° C | 75% | 1013.6 hPa | 0 mm | - | 288 W/m² | - |
| 1787578896 | 22.78° C | 75% | 1013.2 hPa | 0 mm | - | 119 W/m² | - |
| 1787578592 | 22.22° C | 78% | 1013.2 hPa | 0 mm | - | 126 W/m² | - |
| 1787578291 | 22.22° C | 80% | 1013.4 hPa | 0 mm | - | 122 W/m² | - |
| 1787577986 | 21.67° C | 84% | 1013.7 hPa | 0 mm | - | 76 W/m² | - |
| 1787577681 | 21.67° C | 85% | 1013.4 hPa | 0 mm | - | 75 W/m² | - |
| 1787577378 | 21.67° C | 86% | 1013.5 hPa | 0 mm | - | 72 W/m² | - |
| 1787577073 | 21.11° C | 87% | 1013.5 hPa | 0 mm | - | 69 W/m² | - |
| 1787576769 | 20.56° C | 88% | 1013.3 hPa | 0 mm | - | 68 W/m² | - |
| 1787576465 | 20.56° C | 89% | 1013.1 hPa | 0 mm | - | 67 W/m² | - |
| 1787576161 | 20.56° C | 90% | 1013.2 hPa | 0 mm | - | 84 W/m² | - |
| 1787575855 | 20° C | 91% | 1013.2 hPa | 0 mm | - | 72 W/m² | - |
| 1787575552 | 20° C | 92% | 1013.1 hPa | 0 mm | - | 78 W/m² | - |
| 1787575252 | 20° C | 93% | 1013 hPa | 0 mm | - | 61 W/m² | - |
| 1787574946 | 20° C | 93% | 1013.2 hPa | 0 mm | - | 63 W/m² | - |
| 1787574642 | 19.44° C | 94% | 1013.2 hPa | 0 mm | - | 58 W/m² | - |
| 1787574337 | 19.44° C | 95% | 1013.1 hPa | 0 mm | - | 58 W/m² | - |
| 1787574036 | 19.44° C | 96% | 1013.2 hPa | 0 mm | - | 64 W/m² | - |
| 1787573732 | 19.44° C | 97% | 1013.2 hPa | 0 mm | - | 94 W/m² | - |
| 1787573426 | 19.44° C | 97% | 1013.1 hPa | 0 mm | - | 52 W/m² | - |
| 1787573122 | 18.89° C | 97% | 1013.1 hPa | 0 mm | - | 52 W/m² | - |
| 1787572819 | 19.44° C | 97% | 1013.3 hPa | 0 mm | - | 78 W/m² | - |
* Rain latest hour (hover to see other rain measurements)
** Current wind speed in m/s (hover to see current wind gust speed)